Time;durP1;ratioP1;P1;durP2;ratioP2;P2;SDS_P1;SDS_P2;PMS_P1;PMS_P2;Temp;Humidity;BMP_temperature;BMP_pressure;BME280_temperature;BME280_humidity;BME280_pressure;Samples;Min_cycle;Max_cycle;Signal;HPM_P1;HPM_P2
2024/02/05 08:53:03;;;;;;;;;;;;;;;6.89;100.00;100619.69;5448348;23;19942;-93
2024/02/05 08:55:28;;;;;;;;;;;;;;;6.91;100.00;100619.66;4909214;29;19923;-90
2024/02/05 08:57:53;;;;;;;;;;;;;;;6.94;100.00;100614.34;4892526;29;20286;-85
2024/02/05 09:00:19;;;;;;;;;;;;;;;7.00;100.00;100616.88;4909089;29;19927;-86
2024/02/05 09:02:50;;;;;;;;;;;;;;;6.85;100.00;100619.75;4908421;29;19982;-83
2024/02/05 09:05:16;;;;;;;;;;;;;;;6.89;100.00;100617.06;4891075;29;19957;-89
2024/02/05 09:07:41;;;;;;;;;;;;;;;6.89;100.00;100611.78;4907350;29;19959;-86
2024/02/05 09:10:09;;;;;;;;;;;;;;;6.91;100.00;100609.13;4908053;29;19923;-83
2024/02/05 09:12:35;;;;;;;;;;;;;;;6.91;100.00;100609.13;4907548;29;19957;-86
2024/02/05 09:15:00;;;;;;;;;;;;;;;6.90;100.00;100616.13;4907829;29;19926;-87
2024/02/05 09:17:25;;;;;;;;;;;;;;;6.92;100.00;100613.47;4907990;29;20010;-86
2024/02/05 09:19:51;;;;;;;;;;;;;;;6.93;100.00;100612.59;4908353;29;19942;-87
2024/02/05 09:22:16;;;;;;;;;;;;;;;6.94;100.00;100609.09;4907362;29;20019;-84
2024/02/05 09:24:41;;;;;;;;;;;;;;;6.90;100.00;100616.13;4908932;29;19938;-90
2024/02/05 09:27:06;;;;;;;;;;;;;;;6.87;100.00;100617.94;4908189;29;19974;-80
2024/02/05 09:29:32;;;;;;;;;;;;;;;6.90;100.00;100618.78;4907731;29;19927;-82
2024/02/05 09:31:58;;;;;;;;;;;;;;;6.91;100.00;100619.66;4911290;29;19927;-80
2024/02/05 09:34:23;;;;;;;;;;;;;;;6.96;100.00;100625.72;4907178;29;19930;-86
2024/02/05 09:36:48;;;;;;;;;;;;;;;7.04;100.00;100621.22;4906069;29;20007;-87
2024/02/05 09:39:14;;;;;;;;;;;;;;;6.97;100.00;100609.00;4908410;29;20046;-89
2024/02/05 09:41:40;;;;;;;;;;;;;;;7.09;100.00;100606.19;4907455;29;19958;-86
2024/02/05 09:44:05;;;;;;;;;;;;;;;7.09;100.00;100608.84;4908103;29;19978;-81
2024/02/05 09:46:32;;;;;;;;;;;;;;;6.98;100.00;100609.91;4910481;29;19927;-82
2024/02/05 09:49:07;;;;;;;;;;;;;;;7.05;100.00;100607.16;4907913;29;20018;-92
2024/02/05 09:51:35;;;;;;;;;;;;;;;7.05;100.00;100606.25;4909197;29;20271;-84
2024/02/05 09:54:02;;;;;;;;;;;;;;;6.96;100.00;100615.19;4910050;29;20435;-81
2024/02/05 09:56:29;;;;;;;;;;;;;;;6.94;100.00;100611.72;4888469;29;19927;-83
2024/02/05 09:58:54;;;;;;;;;;;;;;;6.95;100.00;100613.44;4889002;29;19959;-82
2024/02/05 10:01:20;;;;;;;;;;;;;;;7.02;100.00;100612.47;4887690;29;19966;-83
2024/02/05 10:03:46;;;;;;;;;;;;;;;7.00;100.00;100608.97;4888780;29;20027;-82
2024/02/05 10:06:13;;;;;;;;;;;;;;;6.98;100.00;100609.91;4889506;29;20257;-81
2024/02/05 10:08:40;;;;;;;;;;;;;;;7.00;100.00;100606.31;4886976;29;19979;-81
2024/02/05 10:11:06;;;;;;;;;;;;;;;7.02;100.00;100607.19;4889109;29;19986;-80
2024/02/05 10:13:33;;;;;;;;;;;;;;;7.02;100.00;100607.19;4888002;29;19984;-81
2024/02/05 10:15:58;;;;;;;;;;;;;;;7.13;100.00;100611.41;4886429;29;19959;-87
2024/02/05 10:18:23;;;;;;;;;;;;;;;7.01;100.00;100607.22;4887715;29;19958;-84
2024/02/05 10:20:48;;;;;;;;;;;;;;;6.94;100.00;100600.28;4888108;29;19963;-81
2024/02/05 10:23:14;;;;;;;;;;;;;;;7.01;100.00;100594.91;4886270;29;20283;-84
2024/02/05 10:25:40;;;;;;;;;;;;;;;7.00;100.00;100594.94;4886272;29;20332;-86
2024/02/05 10:28:06;;;;;;;;;;;;;;;6.96;100.00;100602.03;4888217;29;19920;-87
2024/02/05 10:30:32;;;;;;;;;;;;;;;7.05;100.00;100591.34;4887910;29;19972;-89
2024/02/05 10:32:58;;;;;;;;;;;;;;;7.03;100.00;100603.66;4887062;29;20291;-85
2024/02/05 10:35:24;;;;;;;;;;;;;;;7.09;100.00;100598.28;4888752;29;19919;-89
2024/02/05 10:37:49;;;;;;;;;;;;;;;6.99;100.00;100595.81;4886781;29;20299;-90
2024/02/05 10:40:15;;;;;;;;;;;;;;;7.00;100.00;100598.44;4887030;29;19924;-87
2024/02/05 10:42:41;;;;;;;;;;;;;;;7.06;100.00;100603.59;4888278;29;19923;-85
2024/02/05 10:45:07;;;;;;;;;;;;;;;7.12;100.00;100597.38;4888523;29;20331;-82
2024/02/05 10:47:33;;;;;;;;;;;;;;;7.08;100.00;100601.84;4887780;29;19937;-89
2024/02/05 10:49:59;;;;;;;;;;;;;;;7.06;100.00;100593.06;4887564;29;19924;-81
2024/02/05 10:52:24;;;;;;;;;;;;;;;7.02;100.00;100588.75;4888490;29;19924;-88
2024/02/05 10:54:50;;;;;;;;;;;;;;;7.00;100.00;100595.78;4903499;29;20299;-81
2024/02/05 10:57:18;;;;;;;;;;;;;;;7.19;100.00;100590.25;4906550;29;19924;-84
2024/02/05 10:59:43;;;;;;;;;;;;;;;7.04;100.00;100594.00;4907272;29;20286;-81
2024/02/05 11:02:16;;;;;;;;;;;;;;;7.05;100.00;100596.63;4889863;29;19927;-84
2024/02/05 11:04:41;;;;;;;;;;;;;;;7.12;100.00;100583.34;4907661;29;19966;-87
2024/02/05 11:07:08;;;;;;;;;;;;;;;7.03;100.00;100590.47;4905860;29;19981;-87
2024/02/05 11:09:36;;;;;;;;;;;;;;;7.04;100.00;100573.78;4890945;29;19923;-84
2024/02/05 11:12:02;;;;;;;;;;;;;;;7.07;100.00;100573.72;4889965;29;20284;-86
2024/02/05 11:14:29;;;;;;;;;;;;;;;7.07;100.00;100568.47;4909548;29;19930;-85
2024/02/05 11:16:54;;;;;;;;;;;;;;;7.10;100.00;100572.81;4891893;29;19974;-86
2024/02/05 11:19:20;;;;;;;;;;;;;;;7.13;100.00;100567.47;4909339;29;19955;-85
2024/02/05 11:21:54;;;;;;;;;;;;;;;7.02;100.00;100565.03;4908962;29;20041;-83
2024/02/05 11:24:20;;;;;;;;;;;;;;;6.95;100.00;100567.78;4910719;29;20009;-84
2024/02/05 11:26:46;;;;;;;;;;;;;;;7.06;100.00;100563.22;4908544;29;19919;-88
2024/02/05 11:29:24;;;;;;;;;;;;;;;7.06;100.00;100553.53;4909080;29;20376;-85
2024/02/05 11:31:49;;;;;;;;;;;;;;;7.07;100.00;100547.38;4900130;29;19915;-83
2024/02/05 11:34:16;;;;;;;;;;;;;;;6.98;100.00;100550.16;4909131;29;19923;-83
2024/02/05 11:36:45;;;;;;;;;;;;;;;7.04;100.00;100542.16;4908691;29;19951;-82
2024/02/05 11:39:11;;;;;;;;;;;;;;;7.03;100.00;100540.41;4909358;29;20395;-83
2024/02/05 11:41:36;;;;;;;;;;;;;;;7.02;100.00;100536.06;4909758;29;19928;-83
2024/02/05 11:44:05;;;;;;;;;;;;;;;6.99;100.00;100533.47;4909772;29;19978;-82
2024/02/05 11:46:30;;;;;;;;;;;;;;;7.09;100.00;100535.03;4908906;29;20393;-85
2024/02/05 11:48:56;;;;;;;;;;;;;;;7.15;100.00;100528.81;4908800;29;19923;-83
2024/02/05 11:51:21;;;;;;;;;;;;;;;7.09;100.00;100529.78;4910686;29;19951;-89
2024/02/05 11:53:47;;;;;;;;;;;;;;;7.06;100.00;100528.97;4907124;29;19934;-84
2024/02/05 11:56:13;;;;;;;;;;;;;;;7.11;100.00;100515.72;4909853;29;20332;-84
2024/02/05 11:58:43;;;;;;;;;;;;;;;8.60;100.00;100514.50;4915662;29;19919;-82
2024/02/05 12:01:12;;;;;;;;;;;;;;;7.50;100.00;100507.97;4909277;29;20376;-85
2024/02/05 12:03:37;;;;;;;;;;;;;;;6.30;100.00;100498.50;4909540;29;19935;-87
2024/02/05 12:06:03;;;;;;;;;;;;;;;5.92;100.00;100502.47;4908088;29;20287;-83
2024/02/05 12:08:29;;;;;;;;;;;;;;;5.56;100.00;100502.00;4909064;29;19950;-86
2024/02/05 12:10:54;;;;;;;;;;;;;;;5.45;100.00;100493.38;4909862;29;19919;-87
2024/02/05 12:13:20;;;;;;;;;;;;;;;5.38;100.00;100486.44;4909923;29;19920;-90
2024/02/05 12:15:45;;;;;;;;;;;;;;;5.28;100.00;100489.16;4908897;29;19987;-85
2024/02/05 12:18:10;;;;;;;;;;;;;;;5.23;100.00;100475.22;4910309;29;19919;-85
2024/02/05 12:20:36;;;;;;;;;;;;;;;5.12;100.00;100479.66;4910911;29;20463;-85
2024/02/05 12:23:02;;;;;;;;;;;;;;;5.07;100.00;100477.09;4910094;29;20026;-82
2024/02/05 12:25:28;;;;;;;;;;;;;;;4.93;100.00;100484.25;4910888;29;20435;-80
2024/02/05 12:27:53;;;;;;;;;;;;;;;4.94;100.00;100482.47;4911655;29;20019;-83
2024/02/05 12:30:18;;;;;;;;;;;;;;;4.98;100.00;100486.81;4911184;29;20403;-84
2024/02/05 12:32:51;;;;;;;;;;;;;;;4.97;100.00;100485.06;4914288;29;19930;-88
2024/02/05 12:35:16;;;;;;;;;;;;;;;4.83;100.00;100483.41;4912014;29;19927;-84
2024/02/05 12:37:42;;;;;;;;;;;;;;;4.82;100.00;100475.56;4906832;29;19935;-81
2024/02/05 12:40:09;;;;;;;;;;;;;;;4.76;100.00;100467.75;4909673;29;19972;-83
2024/02/05 12:42:34;;;;;;;;;;;;;;;4.73;100.00;100471.25;4909535;29;19930;-82
2024/02/05 12:45:00;;;;;;;;;;;;;;;4.71;100.00;100470.41;4909837;29;19927;-83
2024/02/05 12:47:26;;;;;;;;;;;;;;;4.63;100.00;100475.72;4910219;29;19923;-83
2024/02/05 12:49:51;;;;;;;;;;;;;;;4.67;100.00;100466.91;4909568;29;19930;-83
2024/02/05 12:52:16;;;;;;;;;;;;;;;4.63;100.00;100466.97;4908473;29;20401;-86
2024/02/05 12:54:42;;;;;;;;;;;;;;;4.66;100.00;100469.56;4913657;29;19927;-85
2024/02/05 12:57:07;;;;;;;;;;;;;;;4.63;100.00;100470.47;4909342;29;20034;-87
2024/02/05 12:59:32;;;;;;;;;;;;;;;4.57;100.00;100465.25;4906479;29;20018;-87
2024/02/05 13:01:58;;;;;;;;;;;;;;;4.62;100.00;100463.47;4907907;29;19919;-81
2024/02/05 13:04:24;;;;;;;;;;;;;;;4.72;100.00;100461.63;4909068;29;19994;-87
2024/02/05 13:06:49;;;;;;;;;;;;;;;4.54;100.00;100455.66;4908228;29;19927;-83
2024/02/05 13:09:14;;;;;;;;;;;;;;;4.54;100.00;100449.53;4914237;29;20013;-80
2024/02/05 13:11:40;;;;;;;;;;;;;;;4.57;100.00;100443.41;4908683;29;19932;-85
2024/02/05 13:14:06;;;;;;;;;;;;;;;4.49;100.00;100446.06;4909660;29;19971;-84
2024/02/05 13:16:31;;;;;;;;;;;;;;;4.50;100.00;100442.56;4908096;29;20276;-81
2024/02/05 13:18:57;;;;;;;;;;;;;;;4.50;100.00;100447.81;4907464;29;19925;-82
2024/02/05 13:21:22;;;;;;;;;;;;;;;4.47;100.00;100435.59;4907672;29;19948;-86
2024/02/05 13:23:48;;;;;;;;;;;;;;;4.47;100.00;100440.84;4907059;29;20006;-86
2024/02/05 13:26:13;;;;;;;;;;;;;;;4.43;100.00;100433.84;4907740;29;19928;-92
2024/02/05 13:28:41;;;;;;;;;;;;;;;4.40;100.00;100426.00;4908599;29;20438;-86
2024/02/05 13:31:06;;;;;;;;;;;;;;;4.33;100.00;100425.19;4908886;29;20319;-86
2024/02/05 13:33:32;;;;;;;;;;;;;;;4.38;100.00;100419.91;4907791;29;19931;-91
2024/02/05 13:35:57;;;;;;;;;;;;;;;4.32;100.00;100417.31;4908075;29;20386;-89
2024/02/05 13:38:25;;;;;;;;;;;;;;;4.34;100.00;100420.81;4906361;29;19924;-91
2024/02/05 13:40:50;;;;;;;;;;;;;;;4.30;100.00;100413.84;4908672;29;19930;-89
2024/02/05 13:43:16;;;;;;;;;;;;;;;4.28;100.00;100413.00;4907452;29;19920;-91
2024/02/05 13:45:42;;;;;;;;;;;;;;;4.33;100.00;100413.81;4907560;29;20500;-84
2024/02/05 13:48:07;;;;;;;;;;;;;;;4.34;100.00;100403.31;4907144;29;19920;-87
2024/02/05 13:50:33;;;;;;;;;;;;;;;4.33;100.00;100405.97;4907764;29;19929;-84
2024/02/05 13:53:00;;;;;;;;;;;;;;;4.24;100.00;100404.25;4911872;29;19927;-82
2024/02/05 13:55:25;;;;;;;;;;;;;;;4.27;100.00;100406.84;4890701;29;19924;-83
2024/02/05 13:57:50;;;;;;;;;;;;;;;4.15;100.00;100399.97;4907151;29;20479;-86
2024/02/05 14:00:16;;;;;;;;;;;;;;;4.17;100.00;100400.81;4907472;29;19923;-86
2024/02/05 14:02:41;;;;;;;;;;;;;;;4.14;100.00;100403.44;4891202;29;19923;-86
2024/02/05 14:05:07;;;;;;;;;;;;;;;4.12;100.00;100394.72;4907686;29;19919;-92
2024/02/05 14:07:32;;;;;;;;;;;;;;;4.10;100.00;100391.25;4906950;29;20379;-93
2024/02/05 14:09:57;;;;;;;;;;;;;;;4.07;100.00;100386.03;4913549;29;19923;-89
2024/02/05 14:12:23;;;;;;;;;;;;;;;4.12;100.00;100383.38;4907598;29;20355;-89
2024/02/05 14:14:48;;;;;;;;;;;;;;;4.09;100.00;100383.41;4905671;29;19930;-88
2024/02/05 14:17:13;;;;;;;;;;;;;;;4.04;100.00;100380.81;4890240;29;19962;-84
2024/02/05 14:19:38;;;;;;;;;;;;;;;4.05;100.00;100382.53;4907270;29;19967;-89
2024/02/05 14:22:04;;;;;;;;;;;;;;;4.03;100.00;100379.06;4905739;29;19927;-84
2024/02/05 14:24:30;;;;;;;;;;;;;;;4.05;100.00;100376.41;4897547;29;20291;-95
2024/02/05 14:26:55;;;;;;;;;;;;;;;4.06;100.00;100378.19;4905459;29;19919;-90
2024/02/05 14:29:23;;;;;;;;;;;;;;;4.04;100.00;100385.16;4907016;29;19998;-88
2024/02/05 14:31:49;;;;;;;;;;;;;;;4.02;100.00;100377.34;4890521;29;19923;-91
2024/02/05 14:34:15;;;;;;;;;;;;;;;4.03;100.00;100378.19;4909592;29;19919;-86
2024/02/05 14:36:42;;;;;;;;;;;;;;;4.08;100.00;100384.28;4907990;29;20029;-83
2024/02/05 14:39:08;;;;;;;;;;;;;;;4.07;100.00;100382.50;4888954;29;19919;-83
2024/02/05 14:41:33;;;;;;;;;;;;;;;4.05;100.00;100373.78;4908256;29;20386;-91
2024/02/05 14:44:00;;;;;;;;;;;;;;;4.07;100.00;100375.53;4906887;29;19927;-92
2024/02/05 14:46:25;;;;;;;;;;;;;;;4.02;100.00;100368.56;4890191;29;19926;-91
2024/02/05 14:48:50;;;;;;;;;;;;;;;4.02;100.00;100369.47;4911430;29;20006;-87
2024/02/05 14:51:16;;;;;;;;;;;;;;;4.04;100.00;100370.31;4911529;29;19919;-85
2024/02/05 14:53:41;;;;;;;;;;;;;;;4.04;100.00;100374.66;4909410;29;20268;-88
2024/02/05 14:56:07;;;;;;;;;;;;;;;3.99;100.00;100366.84;4910307;29;20343;-89
2024/02/05 14:58:33;;;;;;;;;;;;;;;4.04;100.00;100362.44;4911722;29;19971;-84
2024/02/05 15:00:59;;;;;;;;;;;;;;;4.04;100.00;100365.06;4917480;29;19923;-86
2024/02/05 15:03:24;;;;;;;;;;;;;;;3.97;100.00;100360.72;4912822;29;20333;-86
2024/02/05 15:05:50;;;;;;;;;;;;;;;3.99;100.00;100359.84;4911055;29;20532;-85
2024/02/05 15:08:15;;;;;;;;;;;;;;;4.00;100.00;100358.09;4916791;29;19919;-83
2024/02/05 15:10:40;;;;;;;;;;;;;;;4.01;100.00;100354.59;4911864;29;20743;-86
2024/02/05 15:13:06;;;;;;;;;;;;;;;3.95;100.00;100359.88;4910916;29;19962;-83
2024/02/05 15:15:31;;;;;;;;;;;;;;;3.97;100.00;100355.47;4917302;29;19923;-90
2024/02/05 15:17:57;;;;;;;;;;;;;;;3.98;100.00;100365.09;4911788;29;19974;-87
2024/02/05 15:20:22;;;;;;;;;;;;;;;3.92;100.00;100352.03;4909519;29;19923;-86
2024/02/05 15:22:47;;;;;;;;;;;;;;;3.92;100.00;100357.28;4891486;29;19919;-90
2024/02/05 15:25:13;;;;;;;;;;;;;;;3.91;100.00;100356.41;4910729;29;20449;-91
2024/02/05 15:27:38;;;;;;;;;;;;;;;3.93;100.00;100348.53;4909119;29;19920;-83
2024/02/05 15:30:04;;;;;;;;;;;;;;;3.90;100.00;100357.28;4916943;29;19930;-89
2024/02/05 15:32:30;;;;;;;;;;;;;;;3.89;100.00;100354.66;4909350;29;19924;-87
2024/02/05 15:34:58;;;;;;;;;;;;;;;3.90;100.00;100356.44;4909506;29;19963;-86
2024/02/05 15:37:23;;;;;;;;;;;;;;;3.84;100.00;100351.22;4891774;29;19927;-85
2024/02/05 15:39:49;;;;;;;;;;;;;;;3.85;100.00;100353.81;4909734;29;20272;-84
2024/02/05 15:42:14;;;;;;;;;;;;;;;3.81;100.00;100350.38;4909490;29;19919;-84
2024/02/05 15:44:39;;;;;;;;;;;;;;;3.87;100.00;100344.19;4895376;29;19924;-85
2024/02/05 15:47:05;;;;;;;;;;;;;;;3.83;100.00;100350.34;4910519;29;19919;-84
2024/02/05 15:49:33;;;;;;;;;;;;;;;3.86;100.00;100345.09;4909247;29;20001;-88
2024/02/05 15:51:58;;;;;;;;;;;;;;;3.85;100.00;100345.09;4914209;29;20018;-87
2024/02/05 15:54:23;;;;;;;;;;;;;;;3.82;100.00;100346.84;4910104;29;20026;-91
2024/02/05 15:56:49;;;;;;;;;;;;;;;3.87;100.00;100345.94;4909145;29;20009;-90
2024/02/05 15:59:14;;;;;;;;;;;;;;;3.80;100.00;100346.00;4915429;29;19952;-86
2024/02/05 16:01:45;;;;;;;;;;;;;;;3.79;100.00;100339.00;4911062;29;19931;-88
2024/02/05 16:04:11;;;;;;;;;;;;;;;3.78;100.00;100337.28;4909735;29;20393;-92
2024/02/05 16:06:36;;;;;;;;;;;;;;;3.79;100.00;100332.88;4893857;29;20005;-87
2024/02/05 16:09:02;;;;;;;;;;;;;;;3.77;100.00;100324.19;4907252;29;19931;-85
2024/02/05 16:11:27;;;;;;;;;;;;;;;3.72;100.00;100326.81;4910641;29;20339;-91
2024/02/05 16:13:52;;;;;;;;;;;;;;;3.71;100.00;100327.69;4895894;29;20396;-90
2024/02/05 16:16:18;;;;;;;;;;;;;;;3.69;100.00;100329.47;4910994;29;20027;-86
2024/02/05 16:18:43;;;;;;;;;;;;;;;3.68;100.00;100332.94;4908368;29;19923;-86
2024/02/05 16:21:08;;;;;;;;;;;;;;;3.69;100.00;100334.69;4911400;29;20362;-83
2024/02/05 16:23:34;;;;;;;;;;;;;;;3.73;100.00;100331.16;4906596;29;20331;-87
2024/02/05 16:25:59;;;;;;;;;;;;;;;3.69;100.00;100326.84;4910389;29;19923;-82
2024/02/05 16:28:25;;;;;;;;;;;;;;;3.61;100.00;100324.25;4909276;29;19928;-82
2024/02/05 16:30:50;;;;;;;;;;;;;;;3.66;100.00;100319.00;4908646;29;19922;-94
2024/02/05 16:33:15;;;;;;;;;;;;;;;3.70;100.00;100315.50;4891751;29;19993;-86
2024/02/05 16:35:41;;;;;;;;;;;;;;;3.63;100.00;100316.38;4892028;29;20351;-82
2024/02/05 16:38:11;;;;;;;;;;;;;;;3.60;100.00;100316.41;4907139;29;20417;-82
2024/02/05 16:40:36;;;;;;;;;;;;;;;3.65;100.00;100325.09;4908842;29;19930;-90
2024/02/05 16:43:02;;;;;;;;;;;;;;;3.61;100.00;100320.78;4892221;29;19927;-85
2024/02/05 16:45:27;;;;;;;;;;;;;;;3.62;100.00;100325.13;4908626;29;19922;-87
2024/02/05 16:47:52;;;;;;;;;;;;;;;3.67;100.00;100320.75;4914399;29;19966;-89
2024/02/05 16:50:19;;;;;;;;;;;;;;;3.71;100.00;100311.09;4891045;29;19931;-90
2024/02/05 16:52:44;;;;;;;;;;;;;;;3.66;100.00;100321.63;4908224;29;20358;-94
2024/02/05 16:55:09;;;;;;;;;;;;;;;3.70;100.00;100319.84;4908663;29;20010;-83
2024/02/05 16:57:35;;;;;;;;;;;;;;;3.64;100.00;100323.38;4892797;29;19963;-92
2024/02/05 17:00:00;;;;;;;;;;;;;;;3.66;100.00;100316.38;4908374;29;19966;-91
2024/02/05 17:02:26;;;;;;;;;;;;;;;3.68;100.00;100314.59;4909088;29;20022;-90
2024/02/05 17:04:52;;;;;;;;;;;;;;;3.63;100.00;100319.00;4908061;29;19966;-87
2024/02/05 17:07:17;;;;;;;;;;;;;;;3.67;100.00;100319.84;4906244;29;19965;-92
2024/02/05 17:09:44;;;;;;;;;;;;;;;3.66;100.00;100315.50;4908076;29;20335;-87
2024/02/05 17:12:10;;;;;;;;;;;;;;;3.67;100.00;100317.22;4890663;29;19926;-87
2024/02/05 17:14:35;;;;;;;;;;;;;;;3.66;100.00;100315.50;4907172;29;19919;-83
2024/02/05 17:17:00;;;;;;;;;;;;;;;3.66;100.00;100321.63;4907399;29;19920;-89
2024/02/05 17:19:27;;;;;;;;;;;;;;;3.67;100.00;100318.13;4891150;29;19974;-83
2024/02/05 17:21:55;;;;;;;;;;;;;;;4.43;100.00;100321.03;4906380;29;19935;-88
2024/02/05 17:24:21;;;;;;;;;;;;;;;4.33;100.00;100317.63;4907485;29;20283;-82
2024/02/05 17:26:46;;;;;;;;;;;;;;;4.01;100.00;100323.13;4907020;29;19920;-85
2024/02/05 17:29:12;;;;;;;;;;;;;;;3.99;100.00;100320.53;4907133;29;19927;-84
2024/02/05 17:31:38;;;;;;;;;;;;;;;3.94;100.00;100321.41;4907840;29;19923;-81
2024/02/05 17:34:03;;;;;;;;;;;;;;;3.91;100.00;100321.44;4907513;29;19925;-82
2024/02/05 17:36:28;;;;;;;;;;;;;;;3.92;100.00;100324.06;4906940;29;20481;-81
2024/02/05 17:38:54;;;;;;;;;;;;;;;3.90;100.00;100314.47;4906768;29;19919;-81
2024/02/05 17:41:19;;;;;;;;;;;;;;;3.86;100.00;100307.50;4907160;29;19930;-81
2024/02/05 17:43:44;;;;;;;;;;;;;;;3.80;100.00;100309.28;4907056;29;19926;-82
2024/02/05 17:46:09;;;;;;;;;;;;;;;3.87;100.00;100309.25;4907247;29;19923;-81
2024/02/05 17:48:35;;;;;;;;;;;;;;;3.77;100.00;100314.56;4907055;29;19926;-81
2024/02/05 17:51:01;;;;;;;;;;;;;;;3.80;100.00;100311.91;4906718;29;19927;-81
2024/02/05 17:53:26;;;;;;;;;;;;;;;3.77;100.00;100313.69;4905668;29;19931;-81
2024/02/05 17:55:52;;;;;;;;;;;;;;;3.81;100.00;100307.53;4907184;29;20401;-81
2024/02/05 17:58:18;;;;;;;;;;;;;;;3.77;100.00;100309.31;4906959;29;19923;-81
2024/02/05 18:00:44;;;;;;;;;;;;;;;3.76;100.00;100306.69;4907750;29;19924;-82
2024/02/05 18:03:09;;;;;;;;;;;;;;;3.73;100.00;100302.31;4906423;29;19923;-80
2024/02/05 18:05:34;;;;;;;;;;;;;;;3.71;100.00;100303.25;4906797;29;20268;-81
2024/02/05 18:07:59;;;;;;;;;;;;;;;3.79;100.00;100311.91;4905966;29;19920;-81
2024/02/05 18:10:25;;;;;;;;;;;;;;;3.75;100.00;100311.06;4907125;29;19926;-82
2024/02/05 18:12:52;;;;;;;;;;;;;;;3.77;100.00;100308.44;4912625;29;20287;-81
2024/02/05 18:15:17;;;;;;;;;;;;;;;3.80;100.00;100314.53;4906605;29;20042;-81
2024/02/05 18:17:42;;;;;;;;;;;;;;;3.81;100.00;100311.03;4906661;29;20002;-81
2024/02/05 18:20:08;;;;;;;;;;;;;;;3.95;100.00;100310.06;4914287;29;19919;-80
2024/02/05 18:22:34;;;;;;;;;;;;;;;3.85;100.00;100303.16;4904743;29;19935;-82
2024/02/05 18:24:59;;;;;;;;;;;;;;;3.80;100.00;100304.03;4906762;29;20431;-81
2024/02/05 18:27:25;;;;;;;;;;;;;;;3.81;100.00;100303.19;4906962;29;20010;-81
2024/02/05 18:29:50;;;;;;;;;;;;;;;3.83;100.00;100311.03;4906319;29;19920;-81
2024/02/05 18:32:15;;;;;;;;;;;;;;;3.74;100.00;100301.47;4906282;29;19951;-81
2024/02/05 18:34:41;;;;;;;;;;;;;;;3.81;100.00;100300.56;4906368;29;20025;-82
2024/02/05 18:37:06;;;;;;;;;;;;;;;3.85;100.00;100304.00;4911677;29;20394;-81
2024/02/05 18:39:32;;;;;;;;;;;;;;;3.85;100.00;100295.28;4889097;29;19923;-80
2024/02/05 18:41:57;;;;;;;;;;;;;;;3.79;100.00;100291.81;4889388;29;19927;-81
2024/02/05 18:44:22;;;;;;;;;;;;;;;3.83;100.00;100290.06;4906759;29;19924;-80
2024/02/05 18:46:48;;;;;;;;;;;;;;;3.72;100.00;100287.50;4889550;29;19919;-80
2024/02/05 18:49:13;;;;;;;;;;;;;;;3.79;100.00;100290.94;4905940;29;19930;-81
2024/02/05 18:51:39;;;;;;;;;;;;;;;3.84;100.00;100286.53;4906132;29;19927;-82
2024/02/05 18:54:04;;;;;;;;;;;;;;;3.79;100.00;100286.56;4904431;29;19926;-80
2024/02/05 18:56:29;;;;;;;;;;;;;;;3.80;100.00;100288.31;4906336;29;19975;-80
2024/02/05 18:58:55;;;;;;;;;;;;;;;3.75;100.00;100290.09;4906028;29;19927;-80
2024/02/05 19:01:22;;;;;;;;;;;;;;;3.76;100.00;100288.34;4906041;29;20377;-80
2024/02/05 19:03:47;;;;;;;;;;;;;;;3.80;100.00;100283.06;4906362;29;19919;-82
2024/02/05 19:06:12;;;;;;;;;;;;;;;3.79;100.00;100289.19;4905864;29;19926;-81
2024/02/05 19:08:38;;;;;;;;;;;;;;;3.80;100.00;100288.31;4904704;29;19920;-82
2024/02/05 19:11:04;;;;;;;;;;;;;;;3.82;100.00;100286.53;4912357;29;19923;-81
2024/02/05 19:13:30;;;;;;;;;;;;;;;3.81;100.00;100295.31;4889242;29;19927;-81
2024/02/05 19:15:55;;;;;;;;;;;;;;;3.79;100.00;100289.19;4889494;29;19924;-81
2024/02/05 19:18:21;;;;;;;;;;;;;;;3.72;100.00;100297.09;4906141;29;20329;-81
2024/02/05 19:20:46;;;;;;;;;;;;;;;3.76;100.00;100296.22;4911882;29;19934;-81
2024/02/05 19:23:11;;;;;;;;;;;;;;;3.71;100.00;100287.50;4911596;29;19925;-80
2024/02/05 19:25:37;;;;;;;;;;;;;;;3.77;100.00;100288.34;4906311;29;19966;-81
2024/02/05 19:28:03;;;;;;;;;;;;;;;3.75;100.00;100287.47;4888951;29;19931;-83
2024/02/05 19:30:28;;;;;;;;;;;;;;;3.76;100.00;100290.97;4889840;29;19930;-80
2024/02/05 19:32:53;;;;;;;;;;;;;;;3.77;100.00;100287.47;4912781;29;19919;-79
2024/02/05 19:35:18;;;;;;;;;;;;;;;3.74;100.00;100285.72;4909299;29;19929;-80
2024/02/05 19:37:44;;;;;;;;;;;;;;;3.65;100.00;100283.16;4908345;29;19920;-80
2024/02/05 19:40:10;;;;;;;;;;;;;;;3.64;100.00;100278.81;4915756;29;19966;-79
2024/02/05 19:42:35;;;;;;;;;;;;;;;3.73;100.00;100278.75;4892414;29;19936;-79
2024/02/05 19:45:00;;;;;;;;;;;;;;;3.74;100.00;100280.50;4892514;29;19971;-87
2024/02/05 19:47:26;;;;;;;;;;;;;;;3.60;100.00;100271.84;4893643;29;19915;-80
2024/02/05 19:49:51;;;;;;;;;;;;;;;3.66;100.00;100268.34;4910052;29;19923;-81
2024/02/05 19:52:16;;;;;;;;;;;;;;;3.60;100.00;100261.38;4907676;29;19915;-79
2024/02/05 19:54:42;;;;;;;;;;;;;;;3.54;100.00;100264.91;4908895;29;20344;-80
2024/02/05 19:57:07;;;;;;;;;;;;;;;3.66;100.00;100263.94;4909912;29;20328;-82
2024/02/05 19:59:32;;;;;;;;;;;;;;;3.69;100.00;100270.94;4908902;29;19919;-80
2024/02/05 20:01:57;;;;;;;;;;;;;;;3.67;100.00;100260.47;4909519;29;19967;-81
2024/02/05 20:04:23;;;;;;;;;;;;;;;3.61;100.00;100261.34;4908074;29;19923;-82
2024/02/05 20:06:51;;;;;;;;;;;;;;;3.69;100.00;100263.06;4891772;29;20448;-80
2024/02/05 20:09:18;;;;;;;;;;;;;;;3.69;100.00;100260.44;4908982;29;20398;-78
2024/02/05 20:11:43;;;;;;;;;;;;;;;3.67;100.00;100263.09;4909841;29;20022;-80
2024/02/05 20:14:10;;;;;;;;;;;;;;;3.63;100.00;100259.59;4908615;29;19979;-81
2024/02/05 20:16:35;;;;;;;;;;;;;;;3.60;100.00;100253.50;4909019;29;19920;-81
2024/02/05 20:19:01;;;;;;;;;;;;;;;3.62;100.00;100254.34;4915096;29;19916;-80
2024/02/05 20:21:26;;;;;;;;;;;;;;;3.65;100.00;100249.09;4908833;29;19923;-80
2024/02/05 20:23:51;;;;;;;;;;;;;;;3.76;100.00;100247.25;4890497;29;19975;-80
2024/02/05 20:26:17;;;;;;;;;;;;;;;3.73;100.00;100241.19;4909234;29;19915;-81
2024/02/05 20:28:42;;;;;;;;;;;;;;;3.71;100.00;100246.44;4891524;29;19965;-83
2024/02/05 20:31:10;;;;;;;;;;;;;;;3.70;100.00;100244.72;4892320;29;19916;-82
2024/02/05 20:33:35;;;;;;;;;;;;;;;3.61;100.00;100247.41;4908442;29;19919;-81
2024/02/05 20:36:01;;;;;;;;;;;;;;;3.63;100.00;100248.25;4908910;29;20364;-82
2024/02/05 20:38:27;;;;;;;;;;;;;;;3.66;100.00;100248.22;4907070;29;19923;-83
2024/02/05 20:40:52;;;;;;;;;;;;;;;3.68;100.00;100258.69;4908394;29;19998;-80
2024/02/05 20:43:17;;;;;;;;;;;;;;;3.73;100.00;100256.91;4908313;29;20347;-81
2024/02/05 20:45:42;;;;;;;;;;;;;;;3.68;100.00;100256.94;4908050;29;19923;-80
2024/02/05 20:48:08;;;;;;;;;;;;;;;3.71;100.00;100262.16;4908357;29;19927;-81
2024/02/05 20:50:33;;;;;;;;;;;;;;;3.64;100.00;100263.09;4890961;29;19927;-79
2024/02/05 20:52:59;;;;;;;;;;;;;;;3.62;100.00;100254.34;4890001;29;20367;-79
2024/02/05 20:55:24;;;;;;;;;;;;;;;3.61;100.00;100257.88;4908300;29;20023;-79
2024/02/05 20:57:49;;;;;;;;;;;;;;;3.66;100.00;100253.47;4908116;29;19927;-81
2024/02/05 21:00:15;;;;;;;;;;;;;;;3.62;100.00;100251.75;4907923;29;19923;-82
2024/02/05 21:02:40;;;;;;;;;;;;;;;3.64;100.00;100247.38;4907999;29;19926;-81
2024/02/05 21:05:05;;;;;;;;;;;;;;;3.67;100.00;100254.31;4891288;29;20009;-81
2024/02/05 21:07:31;;;;;;;;;;;;;;;3.66;100.00;100256.09;4906696;29;20434;-81
2024/02/05 21:09:56;;;;;;;;;;;;;;;3.60;100.00;100254.38;4907781;29;20320;-80
2024/02/05 21:12:21;;;;;;;;;;;;;;;3.59;100.00;100257.88;4907998;29;19919;-81
2024/02/05 21:14:47;;;;;;;;;;;;;;;3.63;100.00;100256.13;4907966;29;19924;-81
2024/02/05 21:17:12;;;;;;;;;;;;;;;3.66;100.00;100256.09;4907481;29;20294;-83
2024/02/05 21:19:37;;;;;;;;;;;;;;;3.68;100.00;100254.31;4891536;29;19923;-82